createdAt,value
2022-09-13T00:00:20.333Z,6.2
2022-09-13T00:01:28.709Z,6.2
2022-09-13T00:02:36.988Z,6.2
2022-09-13T00:03:45.548Z,6.4
2022-09-13T00:04:53.862Z,6.4
2022-09-13T00:06:02.302Z,6.4
2022-09-13T00:07:10.749Z,6.1
2022-09-13T00:08:19.088Z,6.1
2022-09-13T00:09:27.430Z,6.1
2022-09-13T00:10:35.985Z,6.4
2022-09-13T00:11:44.301Z,6.4
2022-09-13T00:12:52.627Z,6.4
2022-09-13T00:14:01.165Z,6.6
2022-09-13T00:15:09.516Z,6.6
2022-09-13T00:16:17.901Z,6.6
2022-09-13T00:17:26.346Z,6.7
2022-09-13T00:18:34.694Z,6.7
2022-09-13T00:19:43.011Z,6.7
2022-09-13T00:20:51.531Z,6.4
2022-09-13T00:21:59.900Z,6.4
2022-09-13T00:23:08.217Z,6.4
2022-09-13T00:24:16.767Z,6.9
2022-09-13T00:25:25.097Z,6.9
2022-09-13T00:26:33.440Z,6.9
2022-09-13T00:27:41.968Z,6.3
2022-09-13T00:28:50.294Z,6.3
2022-09-13T00:29:58.623Z,6.3
2022-09-13T00:31:07.145Z,6.8
2022-09-13T00:32:15.480Z,6.8
2022-09-13T00:33:23.802Z,6.8
2022-09-13T00:34:32.347Z,6.6
2022-09-13T00:35:40.671Z,6.6
2022-09-13T00:36:49.015Z,6.6
2022-09-13T00:37:57.664Z,6.9
2022-09-13T00:39:05.865Z,6.9
2022-09-13T00:40:14.230Z,6.9
2022-09-13T00:41:22.725Z,7.5
2022-09-13T00:42:31.051Z,7.5
2022-09-13T00:43:39.397Z,7.5
2022-09-13T00:44:47.921Z,7
2022-09-13T00:45:56.281Z,7
2022-09-13T00:47:04.544Z,7
2022-09-13T00:48:13.100Z,6.6
2022-09-13T00:49:21.433Z,6.6
2022-09-13T00:50:29.746Z,6.6
2022-09-13T00:51:38.271Z,7.4
2022-09-13T00:52:46.876Z,7.4
2022-09-13T00:53:55.016Z,7.4
2022-09-13T00:55:03.457Z,6.7
2022-09-13T00:56:11.798Z,6.7
2022-09-13T00:57:20.135Z,6.7
2022-09-13T00:58:28.683Z,6.9
2022-09-13T00:59:37.003Z,6.9
2022-09-13T01:00:45.408Z,6.9
2022-09-13T01:01:53.917Z,7
2022-09-13T01:03:02.267Z,7
2022-09-13T01:04:12.667Z,7
2022-09-13T01:05:19.133Z,6.5
2022-09-13T01:06:27.458Z,6.5
2022-09-13T01:07:35.783Z,6.5
2022-09-13T01:08:44.333Z,6.9
2022-09-13T01:09:52.756Z,6.9
2022-09-13T01:11:00.958Z,6.9
2022-09-13T01:12:09.480Z,7
2022-09-13T01:13:17.804Z,7
2022-09-13T01:14:26.150Z,7
2022-09-13T01:15:34.677Z,7.1
2022-09-13T01:16:47.229Z,7.1
2022-09-13T01:17:51.341Z,7.1
2022-09-13T01:18:59.888Z,6.4
2022-09-13T01:20:08.212Z,6.4
2022-09-13T01:21:16.564Z,6.4
2022-09-13T01:22:25.102Z,7.1
2022-09-13T01:23:33.447Z,7.1
2022-09-13T01:24:41.769Z,7.1
2022-09-13T01:25:50.351Z,6.7
2022-09-13T01:26:58.661Z,6.7
2022-09-13T01:28:07.003Z,6.7
2022-09-13T01:29:15.541Z,6.9
2022-09-13T01:30:23.872Z,6.9
2022-09-13T01:31:32.268Z,6.9
2022-09-13T01:32:40.764Z,6.8
2022-09-13T01:33:49.174Z,6.8
2022-09-13T01:34:57.429Z,6.8
2022-09-13T01:36:05.980Z,7
2022-09-13T01:37:14.302Z,7
2022-09-13T01:38:22.642Z,7
2022-09-13T01:39:31.164Z,7
2022-09-13T01:40:39.494Z,7
2022-09-13T01:41:47.847Z,7
2022-09-13T01:42:56.362Z,7.3
2022-09-13T01:44:04.715Z,7.3
2022-09-13T01:45:13.032Z,7.3
2022-09-13T01:46:21.567Z,7.3
2022-09-13T01:47:29.889Z,7.3
2022-09-13T01:48:38.228Z,7.3
2022-09-13T01:49:46.752Z,7.8
2022-09-13T01:50:55.087Z,7.8
2022-09-13T01:52:03.427Z,7.8
2022-09-13T01:53:11.967Z,7.5
2022-09-13T01:54:20.296Z,7.5
2022-09-13T01:55:28.612Z,7.5
2022-09-13T01:56:37.141Z,7.6
2022-09-13T01:57:45.601Z,7.6
2022-09-13T01:58:53.788Z,7.6
2022-09-13T02:00:02.354Z,7.5
2022-09-13T02:01:10.742Z,7.5
2022-09-13T02:02:19.133Z,7.5
2022-09-13T02:03:27.529Z,7.8
2022-09-13T02:04:35.877Z,7.8
2022-09-13T02:05:44.194Z,7.8
2022-09-13T02:06:52.740Z,8.1
2022-09-13T02:08:01.067Z,8.1
2022-09-13T02:09:09.418Z,8.1
2022-09-13T02:10:17.945Z,7.9
2022-09-13T02:11:26.296Z,7.9
2022-09-13T02:12:34.627Z,7.9
2022-09-13T02:13:43.285Z,8.3
2022-09-13T02:14:51.499Z,8.3
2022-09-13T02:15:59.829Z,8.3
2022-09-13T02:17:08.359Z,7.7
2022-09-13T02:18:16.689Z,7.7
2022-09-13T02:19:25.025Z,7.7
2022-09-13T02:20:33.574Z,8.2
2022-09-13T02:21:41.909Z,8.2
2022-09-13T02:22:50.260Z,8.2
2022-09-13T02:23:58.787Z,7.9
2022-09-13T02:25:07.129Z,7.9
2022-09-13T02:26:15.445Z,7.9
2022-09-13T02:27:24.014Z,8
2022-09-13T02:28:32.368Z,8
2022-09-13T02:29:40.715Z,8
2022-09-13T02:30:49.252Z,8.7
2022-09-13T02:31:57.636Z,8.7
2022-09-13T02:33:05.917Z,8.7
2022-09-13T02:34:14.477Z,8.5
2022-09-13T02:35:22.822Z,8.5
2022-09-13T02:36:31.165Z,8.5
2022-09-13T02:37:39.714Z,8.4
2022-09-13T02:38:48.065Z,8.4
2022-09-13T02:39:56.458Z,8.4
2022-09-13T02:41:04.928Z,8.7
2022-09-13T02:42:13.259Z,8.7
2022-09-13T02:43:21.686Z,8.7
2022-09-13T02:44:30.231Z,8.9
2022-09-13T02:45:38.583Z,8.9
2022-09-13T02:46:46.857Z,8.9
2022-09-13T02:47:55.381Z,8.9
2022-09-13T02:49:03.716Z,8.9
2022-09-13T02:50:12.057Z,8.9
2022-09-13T02:51:20.607Z,8.8
2022-09-13T02:52:28.924Z,8.8
2022-09-13T02:53:37.230Z,8.8
2022-09-13T02:54:45.778Z,8.8
2022-09-13T02:55:54.097Z,8.8
2022-09-13T02:57:02.462Z,8.8
2022-09-13T02:58:10.993Z,9
2022-09-13T02:59:19.350Z,9
2022-09-13T03:00:27.682Z,9
2022-09-13T03:01:36.326Z,9.1
2022-09-13T03:02:44.589Z,9.1
2022-09-13T03:03:52.914Z,9.1
2022-09-13T03:05:01.472Z,8.8
2022-09-13T03:06:09.784Z,8.8
2022-09-13T03:07:18.134Z,8.8
2022-09-13T03:08:26.658Z,9.7
2022-09-13T03:09:35.016Z,9.7
2022-09-13T03:10:43.330Z,9.7
2022-09-13T03:11:51.864Z,9.4
2022-09-13T03:13:00.176Z,9.4
2022-09-13T03:14:08.515Z,9.4
2022-09-13T03:15:17.050Z,8.8
2022-09-13T03:16:25.450Z,8.8
2022-09-13T03:17:33.733Z,8.8
2022-09-13T03:18:42.271Z,9.8
2022-09-13T03:19:50.574Z,9.8
2022-09-13T03:20:58.913Z,9.8
2022-09-13T03:22:07.440Z,9.2
2022-09-13T03:23:15.793Z,9.2
2022-09-13T03:24:24.148Z,9.2
2022-09-13T03:25:32.679Z,9.2
2022-09-13T03:26:41.015Z,9.2
2022-09-13T03:27:49.332Z,9.2
2022-09-13T03:28:57.882Z,9.5
2022-09-13T03:30:06.204Z,9.5
2022-09-13T03:31:16.330Z,9.5
2022-09-13T03:32:23.093Z,9.3
2022-09-13T03:33:31.462Z,9.3
2022-09-13T03:34:39.785Z,9.3
2022-09-13T03:35:48.350Z,9.5
2022-09-13T03:36:56.697Z,9.5
2022-09-13T03:38:05.035Z,9.5
2022-09-13T03:39:15.142Z,9.4
2022-09-13T03:40:22.015Z,9.4
2022-09-13T03:41:30.284Z,9.4
2022-09-13T03:42:38.845Z,8.8
2022-09-13T03:43:47.198Z,8.8
2022-09-13T03:44:55.547Z,8.8
2022-09-13T03:46:04.198Z,9.2
2022-09-13T03:47:12.516Z,9.2
2022-09-13T03:48:21.348Z,9.2
2022-09-13T03:49:30.031Z,8.4
2022-09-13T03:50:38.240Z,8.4
2022-09-13T03:51:46.584Z,8.4
2022-09-13T03:52:56.074Z,8.9
2022-09-13T03:54:04.421Z,8.9
2022-09-13T03:55:12.759Z,8.9
2022-09-13T03:56:21.301Z,8.6
2022-09-13T03:57:29.647Z,8.6
2022-09-13T03:58:37.987Z,8.6
2022-09-13T03:59:46.545Z,8.4
2022-09-13T04:00:54.956Z,8.4
2022-09-13T04:02:03.249Z,8.4
2022-09-13T04:03:11.753Z,8.7
2022-09-13T04:04:20.106Z,8.7
2022-09-13T04:05:28.572Z,8.7
2022-09-13T04:06:36.996Z,8.6
2022-09-13T04:07:45.321Z,8.6
2022-09-13T04:08:53.672Z,8.6
2022-09-13T04:10:02.217Z,8.6
2022-09-13T04:11:10.562Z,8.6
2022-09-13T04:12:18.903Z,8.6
2022-09-13T04:13:27.421Z,8
2022-09-13T04:14:35.827Z,8
2022-09-13T04:15:44.155Z,8
2022-09-13T04:16:52.715Z,8.7
2022-09-13T04:18:01.046Z,8.7
2022-09-13T04:19:09.376Z,8.7
2022-09-13T04:20:17.926Z,8.8
2022-09-13T04:21:26.364Z,8.8
2022-09-13T04:22:34.615Z,8.8
2022-09-13T04:23:43.141Z,8.6
2022-09-13T04:24:51.459Z,8.6
2022-09-13T04:25:59.779Z,8.6
2022-09-13T04:27:08.310Z,9.1
2022-09-13T04:28:16.635Z,9.1
2022-09-13T04:29:24.969Z,9.1
2022-09-13T04:30:33.490Z,8.5
2022-09-13T04:31:41.867Z,8.5
2022-09-13T04:32:50.162Z,8.5
2022-09-13T04:33:58.725Z,8.8
2022-09-13T04:35:07.076Z,8.8
2022-09-13T04:36:15.417Z,8.8
2022-09-13T04:37:23.961Z,9
2022-09-13T04:38:32.290Z,9
2022-09-13T04:39:40.673Z,9
2022-09-13T04:40:49.195Z,8.3
2022-09-13T04:41:57.520Z,8.3
2022-09-13T04:43:05.868Z,8.3
2022-09-13T04:44:14.420Z,9.2
2022-09-13T04:45:22.764Z,9.2
2022-09-13T04:46:31.108Z,9.2
2022-09-13T04:47:39.644Z,9
2022-09-13T04:48:48.051Z,9
2022-09-13T04:49:56.346Z,9
2022-09-13T04:51:04.870Z,8.8
2022-09-13T04:52:13.194Z,8.8
2022-09-13T04:53:21.551Z,8.8
2022-09-13T04:54:30.087Z,8.5
2022-09-13T04:55:38.423Z,8.5
2022-09-13T04:56:46.750Z,8.5
2022-09-13T04:57:55.303Z,8.6
2022-09-13T04:59:03.665Z,8.6
2022-09-13T05:00:12.026Z,8.6
2022-09-13T05:01:21.072Z,8.7
2022-09-13T05:02:28.993Z,8.7
2022-09-13T05:03:37.242Z,8.7
2022-09-13T05:04:45.792Z,8.4
2022-09-13T05:05:54.116Z,8.4
2022-09-13T05:07:02.450Z,8.4
2022-09-13T05:08:10.983Z,8.6
2022-09-13T05:09:19.334Z,8.6
2022-09-13T05:10:27.678Z,8.6
2022-09-13T05:11:36.196Z,8.6
2022-09-13T05:12:44.508Z,8.6
2022-09-13T05:13:52.906Z,8.6
2022-09-13T05:15:01.412Z,9.1
2022-09-13T05:16:09.817Z,9.1
2022-09-13T05:17:18.078Z,9.1
2022-09-13T05:18:26.652Z,9
2022-09-13T05:19:35.015Z,9
2022-09-13T05:20:43.352Z,9
2022-09-13T05:21:51.902Z,8.9
2022-09-13T05:23:00.238Z,8.9
2022-09-13T05:24:08.572Z,8.9
2022-09-13T05:25:17.161Z,8.8
2022-09-13T05:26:25.489Z,8.8
2022-09-13T05:27:33.840Z,8.8
2022-09-13T05:28:42.420Z,8.6
2022-09-13T05:29:50.746Z,8.6
2022-09-13T05:30:59.155Z,8.6
2022-09-13T05:32:07.661Z,8.4
2022-09-13T05:33:15.970Z,8.4
2022-09-13T05:34:24.317Z,8.4
2022-09-13T05:35:32.845Z,8.5
2022-09-13T05:36:41.188Z,8.5
2022-09-13T05:37:49.522Z,8.5
2022-09-13T05:39:19.092Z,8.2
2022-09-13T05:40:13.746Z,8.2
2022-09-13T05:41:14.788Z,8.2
2022-09-13T05:42:23.299Z,8.1
2022-09-13T05:43:31.639Z,8.1
2022-09-13T05:44:39.992Z,8.1
2022-09-13T05:45:48.580Z,8
2022-09-13T05:46:56.883Z,8
2022-09-13T05:48:05.213Z,8
2022-09-13T05:49:13.775Z,7.7
2022-09-13T05:50:44.992Z,7.7
2022-09-13T05:51:30.418Z,7.7
2022-09-13T05:52:38.956Z,7.4
2022-09-13T05:53:47.289Z,7.4
2022-09-13T05:54:55.628Z,7.4
2022-09-13T05:56:04.189Z,8
2022-09-13T05:57:12.524Z,8
2022-09-13T05:58:20.963Z,8
2022-09-13T05:59:29.439Z,7.9
2022-09-13T06:00:37.782Z,7.9
2022-09-13T06:01:46.168Z,7.9
2022-09-13T06:02:54.710Z,8.2
2022-09-13T06:04:03.012Z,8.2
2022-09-13T06:05:11.357Z,8.2
2022-09-13T06:06:19.889Z,8.2
2022-09-13T06:07:28.225Z,8.2
2022-09-13T06:08:36.590Z,8.2
2022-09-13T06:09:45.110Z,7.1
2022-09-13T06:10:53.444Z,7.1
2022-09-13T06:12:01.783Z,7.1
2022-09-13T06:13:10.369Z,7.1
2022-09-13T06:14:18.718Z,7.1
2022-09-13T06:15:27.071Z,7.1
2022-09-13T06:16:35.706Z,7.6
2022-09-13T06:17:43.979Z,7.6
2022-09-13T06:18:52.310Z,7.6
2022-09-13T06:20:00.847Z,7.2
2022-09-13T06:21:09.174Z,7.2
2022-09-13T06:22:17.498Z,7.2
2022-09-13T06:23:26.030Z,7.7
2022-09-13T06:24:34.355Z,7.7
2022-09-13T06:25:42.689Z,7.7
2022-09-13T06:26:51.205Z,7.8
2022-09-13T06:27:59.527Z,7.8
2022-09-13T06:29:07.994Z,7.8
2022-09-13T06:30:16.413Z,7.1
2022-09-13T06:31:24.892Z,7.1
2022-09-13T06:32:33.071Z,7.1
2022-09-13T06:33:41.636Z,7
2022-09-13T06:34:49.933Z,7
2022-09-13T06:35:58.259Z,7
2022-09-13T06:37:06.777Z,7
2022-09-13T06:38:15.124Z,7
2022-09-13T06:39:23.457Z,7
2022-09-13T06:40:32.022Z,7
2022-09-13T06:41:40.294Z,7
2022-09-13T06:42:48.609Z,7
2022-09-13T06:43:57.144Z,6.9
2022-09-13T06:45:05.483Z,6.9
2022-09-13T06:46:13.807Z,6.9
2022-09-13T06:47:22.325Z,6.8
2022-09-13T06:48:30.641Z,6.8
2022-09-13T06:49:38.968Z,6.8
2022-09-13T06:50:47.511Z,6.6
2022-09-13T06:51:55.818Z,6.6
2022-09-13T06:53:04.145Z,6.6
2022-09-13T06:54:12.674Z,6.9
2022-09-13T06:55:21.069Z,6.9
2022-09-13T06:56:29.409Z,6.9
2022-09-13T06:57:38.017Z,6.3
2022-09-13T06:58:46.356Z,6.3
2022-09-13T06:59:54.658Z,6.3
2022-09-13T07:01:03.381Z,6.5
2022-09-13T07:02:11.579Z,6.5
2022-09-13T07:03:19.891Z,6.5
2022-09-13T07:04:28.418Z,6.3
2022-09-13T07:05:36.790Z,6.3
2022-09-13T07:06:45.109Z,6.3
2022-09-13T07:07:53.636Z,6.1
2022-09-13T07:09:01.979Z,6.1
2022-09-13T07:10:10.289Z,6.1
2022-09-13T07:11:18.840Z,6.4
2022-09-13T07:12:27.169Z,6.4
2022-09-13T07:13:35.495Z,6.4
2022-09-13T07:14:44.030Z,6.1
2022-09-13T07:15:52.385Z,6.1
2022-09-13T07:17:00.719Z,6.1
2022-09-13T07:18:09.245Z,6.1
2022-09-13T07:19:17.599Z,6.1
2022-09-13T07:20:25.918Z,6.1
2022-09-13T07:21:34.464Z,6.3
2022-09-13T07:22:42.782Z,6.3
2022-09-13T07:23:51.135Z,6.3
2022-09-13T07:24:59.676Z,6.5
2022-09-13T07:26:07.996Z,6.5
2022-09-13T07:27:16.309Z,6.5
2022-09-13T07:28:27.376Z,6.1
2022-09-13T07:29:33.210Z,6.1
2022-09-13T07:30:41.573Z,6.1
2022-09-13T07:31:50.147Z,6.1
2022-09-13T07:32:58.588Z,6.1
2022-09-13T07:34:06.812Z,6.1
2022-09-13T07:35:15.345Z,5.9
2022-09-13T07:36:23.656Z,5.9
2022-09-13T07:37:31.977Z,5.9
2022-09-13T07:38:40.519Z,5.9
2022-09-13T07:39:48.898Z,5.9
2022-09-13T07:40:57.170Z,5.9
2022-09-13T07:42:05.695Z,6.2
2022-09-13T07:43:14.029Z,6.2
2022-09-13T07:44:22.343Z,6.2
2022-09-13T07:45:30.898Z,6
2022-09-13T07:46:39.297Z,6
2022-09-13T07:47:47.586Z,6
2022-09-13T07:48:56.260Z,6.1
2022-09-13T07:50:04.456Z,6.1
2022-09-13T07:51:12.806Z,6.1
2022-09-13T07:52:21.336Z,6.4
2022-09-13T07:53:29.665Z,6.4
2022-09-13T07:54:37.987Z,6.4
2022-09-13T07:55:46.509Z,6.4
2022-09-13T07:56:54.851Z,6.4
2022-09-13T07:58:03.181Z,6.4
2022-09-13T07:59:11.744Z,7
2022-09-13T08:00:20.122Z,7
2022-09-13T08:01:28.476Z,7
2022-09-13T08:02:37.005Z,7.6
2022-09-13T08:03:45.338Z,7.6
2022-09-13T08:04:53.668Z,7.6
2022-09-13T08:06:02.165Z,7.1
2022-09-13T08:07:10.532Z,7.1
2022-09-13T08:08:18.871Z,7.1
2022-09-13T08:09:27.405Z,7.7
2022-09-13T08:10:35.777Z,7.7
2022-09-13T08:11:44.107Z,7.7
2022-09-13T08:12:52.629Z,7.2
2022-09-13T08:14:00.997Z,7.2
2022-09-13T08:15:09.321Z,7.2
2022-09-13T08:16:17.923Z,7.3
2022-09-13T08:17:26.227Z,7.3
2022-09-13T08:18:34.538Z,7.3
2022-09-13T08:19:43.072Z,7
2022-09-13T08:20:51.509Z,7
2022-09-13T08:21:59.760Z,7
2022-09-13T08:23:08.326Z,6.8
2022-09-13T08:24:16.697Z,6.8
2022-09-13T08:25:25.010Z,6.8
2022-09-13T08:26:33.546Z,6.4
2022-09-13T08:27:41.869Z,6.4
2022-09-13T08:28:50.202Z,6.4
2022-09-13T08:29:58.752Z,6.1
2022-09-13T08:31:07.162Z,6.1
2022-09-13T08:32:15.435Z,6.1
2022-09-13T08:33:24.006Z,5.7
2022-09-13T08:34:32.325Z,5.7
2022-09-13T08:35:40.644Z,5.7
2022-09-13T08:36:49.286Z,6.3
2022-09-13T08:37:57.530Z,6.3
2022-09-13T08:39:05.851Z,6.3
2022-09-13T08:40:14.421Z,5.9
2022-09-13T08:41:22.718Z,5.9
2022-09-13T08:42:31.031Z,5.9
2022-09-13T08:43:39.578Z,5.4
2022-09-13T08:44:47.924Z,5.4
2022-09-13T08:45:56.323Z,5.4
2022-09-13T08:47:04.803Z,4.8
2022-09-13T08:48:13.125Z,4.8
2022-09-13T08:49:21.461Z,4.8
2022-09-13T08:50:30.061Z,4.8
2022-09-13T08:51:38.362Z,4.8
2022-09-13T08:52:46.738Z,4.8
2022-09-13T08:53:55.264Z,5.1
2022-09-13T08:55:03.592Z,5.1
2022-09-13T08:56:11.971Z,5.1
2022-09-13T08:57:20.500Z,4.5
2022-09-13T08:58:28.823Z,4.5
2022-09-13T08:59:37.186Z,4.5
2022-09-13T09:00:45.726Z,5
2022-09-13T09:01:54.068Z,5
2022-09-13T09:03:02.390Z,5
2022-09-13T09:04:10.909Z,4.6
2022-09-13T09:05:19.229Z,4.6
2022-09-13T09:06:27.535Z,4.6
2022-09-13T09:07:36.098Z,4.8
2022-09-13T09:08:44.516Z,4.8
2022-09-13T09:09:52.814Z,4.8
2022-09-13T09:11:01.346Z,5.2
2022-09-13T09:12:09.657Z,5.2
2022-09-13T09:13:20.563Z,5.2
2022-09-13T09:14:26.547Z,5.8
2022-09-13T09:15:34.923Z,5.8
2022-09-13T09:16:43.205Z,5.8
2022-09-13T09:17:51.726Z,5.5
2022-09-13T09:19:00.077Z,5.5
2022-09-13T09:20:08.413Z,5.5
2022-09-13T09:21:16.931Z,5.5
2022-09-13T09:22:25.253Z,5.5
2022-09-13T09:23:33.572Z,5.5
2022-09-13T09:24:42.146Z,6
2022-09-13T09:25:50.432Z,6
2022-09-13T09:26:58.763Z,6
2022-09-13T09:28:07.296Z,6.4
2022-09-13T09:29:15.649Z,6.4
2022-09-13T09:30:23.971Z,6.4
2022-09-13T09:31:32.527Z,5.6
2022-09-13T09:32:40.847Z,5.6
2022-09-13T09:33:49.435Z,5.6
2022-09-13T09:34:57.707Z,6.1
2022-09-13T09:36:06.020Z,6.1
2022-09-13T09:37:14.343Z,6.1
2022-09-13T09:38:22.885Z,6
2022-09-13T09:39:31.197Z,6
2022-09-13T09:40:39.605Z,6
2022-09-13T09:41:48.128Z,5.8
2022-09-13T09:42:56.446Z,5.8
2022-09-13T09:44:04.764Z,5.8
2022-09-13T09:45:13.311Z,6
2022-09-13T09:46:21.676Z,6
2022-09-13T09:47:29.977Z,6
2022-09-13T09:48:38.525Z,7.4
2022-09-13T09:49:46.847Z,7.4
2022-09-13T09:50:55.230Z,7.4
2022-09-13T09:52:03.731Z,6.6
2022-09-13T09:53:12.071Z,6.6
2022-09-13T09:54:20.611Z,6.6
2022-09-13T09:55:29.138Z,5.8
2022-09-13T09:56:37.489Z,5.8
2022-09-13T09:57:45.776Z,5.8
2022-09-13T09:58:54.328Z,5.7
2022-09-13T10:00:02.683Z,5.7
2022-09-13T10:01:11.433Z,5.7
2022-09-13T10:02:19.576Z,5.7
2022-09-13T10:03:27.867Z,5.7
2022-09-13T10:04:36.203Z,5.7
2022-09-13T10:05:44.740Z,5.5
2022-09-13T10:06:53.110Z,5.5
2022-09-13T10:08:01.470Z,5.5
2022-09-13T10:09:09.995Z,5.7
2022-09-13T10:10:18.325Z,5.7
2022-09-13T10:11:26.663Z,5.7
2022-09-13T10:12:35.220Z,5.4
2022-09-13T10:13:43.524Z,5.4
2022-09-13T10:14:51.868Z,5.4
2022-09-13T10:16:00.413Z,5.6
2022-09-13T10:17:08.750Z,5.6
2022-09-13T10:18:40.309Z,5.6
2022-09-13T10:19:25.601Z,5.4
2022-09-13T10:20:33.929Z,5.4
2022-09-13T10:21:42.246Z,5.4
2022-09-13T10:22:50.809Z,5.5
2022-09-13T10:23:59.140Z,5.5
2022-09-13T10:25:07.465Z,5.5
2022-09-13T10:26:15.983Z,6
2022-09-13T10:27:24.307Z,6
2022-09-13T10:28:32.676Z,6
2022-09-13T10:29:41.181Z,5.8
2022-09-13T10:30:49.583Z,5.8
2022-09-13T10:31:57.841Z,5.8
2022-09-13T10:33:06.387Z,5.3
2022-09-13T10:34:14.700Z,5.3
2022-09-13T10:35:23.010Z,5.3
2022-09-13T10:36:52.000Z,5.2
2022-09-13T10:37:39.880Z,5.2
2022-09-13T10:38:48.339Z,5.2
2022-09-13T10:39:56.822Z,4.9
2022-09-13T10:41:05.105Z,4.9
2022-09-13T10:42:13.448Z,4.9
2022-09-13T10:43:21.971Z,4.6
2022-09-13T10:44:30.349Z,4.6
2022-09-13T10:45:38.697Z,4.6
2022-09-13T10:46:47.164Z,4.4
2022-09-13T10:47:55.506Z,4.4
2022-09-13T10:49:03.878Z,4.4
2022-09-13T10:50:12.422Z,4.2
2022-09-13T10:51:20.754Z,4.2
2022-09-13T10:52:29.120Z,4.2
2022-09-13T10:53:37.665Z,4.3
2022-09-13T10:54:45.999Z,4.3
2022-09-13T10:55:54.329Z,4.3
2022-09-13T10:57:02.878Z,4
2022-09-13T10:58:11.205Z,4
2022-09-13T10:59:19.538Z,4
2022-09-13T11:00:28.131Z,4
2022-09-13T11:01:40.225Z,4
2022-09-13T11:02:44.786Z,4
2022-09-13T11:03:53.353Z,3.8
2022-09-13T11:05:01.685Z,3.8
2022-09-13T11:06:10.002Z,3.8
2022-09-13T11:07:18.564Z,3.6
2022-09-13T11:08:26.908Z,3.6
2022-09-13T11:09:35.245Z,3.6
2022-09-13T11:10:43.813Z,3.2
2022-09-13T11:11:52.149Z,3.2
2022-09-13T11:13:00.481Z,3.2
2022-09-13T11:14:09.079Z,3.2
2022-09-13T11:15:17.372Z,3.2
2022-09-13T11:16:25.833Z,3.2
2022-09-13T11:17:34.276Z,3.5
2022-09-13T11:18:42.661Z,3.5
2022-09-13T11:19:54.011Z,3.5
2022-09-13T11:20:59.557Z,3.1
2022-09-13T11:22:07.889Z,3.1
2022-09-13T11:23:16.218Z,3.1
2022-09-13T11:24:24.752Z,3
2022-09-13T11:25:33.126Z,3
2022-09-13T11:26:41.454Z,3
2022-09-13T11:27:50.002Z,3.1
2022-09-13T11:28:58.324Z,3.1
2022-09-13T11:30:06.651Z,3.1
2022-09-13T11:31:15.270Z,2.7
2022-09-13T11:32:23.555Z,2.7
2022-09-13T11:33:31.857Z,2.7
2022-09-13T11:34:40.391Z,3.1
2022-09-13T11:35:48.747Z,3.1
2022-09-13T11:36:57.102Z,3.1
2022-09-13T11:38:05.666Z,2.7
2022-09-13T11:39:13.984Z,2.7
2022-09-13T11:40:22.372Z,2.7
2022-09-13T11:41:30.878Z,2.6
2022-09-13T11:42:39.245Z,2.6
2022-09-13T11:43:47.576Z,2.6
2022-09-13T11:44:56.104Z,2.5
2022-09-13T11:46:04.485Z,2.5
2022-09-13T11:47:12.766Z,2.5
2022-09-13T11:48:21.322Z,2.2
2022-09-13T11:49:29.642Z,2.2
2022-09-13T11:50:38.070Z,2.2
2022-09-13T11:51:46.664Z,2.6
2022-09-13T11:52:55.111Z,2.6
2022-09-13T11:54:03.477Z,2.6
2022-09-13T11:55:12.044Z,2.6
2022-09-13T11:56:20.384Z,2.6
2022-09-13T11:57:28.724Z,2.6
2022-09-13T11:58:37.262Z,2.8
2022-09-13T11:59:45.593Z,2.8
2022-09-13T12:00:53.934Z,2.8
2022-09-13T12:02:02.593Z,2.9
2022-09-13T12:03:11.041Z,2.9
2022-09-13T12:04:19.211Z,2.9
2022-09-13T12:05:27.741Z,3.1
2022-09-13T12:06:36.092Z,3.1
2022-09-13T12:07:44.439Z,3.1
2022-09-13T12:08:53.000Z,3.2
2022-09-13T12:10:01.347Z,3.2
2022-09-13T12:11:12.880Z,3.2
2022-09-13T12:12:18.249Z,3.2
2022-09-13T12:13:26.602Z,3.2
2022-09-13T12:14:34.940Z,3.2
2022-09-13T12:15:43.481Z,3.3
2022-09-13T12:16:51.887Z,3.3
2022-09-13T12:18:00.180Z,3.3
2022-09-13T12:19:08.734Z,3.4
2022-09-13T12:20:17.157Z,3.4
2022-09-13T12:21:25.387Z,3.4
2022-09-13T12:22:33.949Z,3.3
2022-09-13T12:23:42.301Z,3.3
2022-09-13T12:24:50.624Z,3.3
2022-09-13T12:25:59.167Z,3.9
2022-09-13T12:27:07.510Z,3.9
2022-09-13T12:28:15.861Z,3.9
2022-09-13T12:29:24.416Z,3.6
2022-09-13T12:30:32.741Z,3.6
2022-09-13T12:31:56.727Z,3.6
2022-09-13T12:33:06.036Z,3.3
2022-09-13T12:34:14.359Z,3.3
2022-09-13T12:35:22.725Z,3.3
2022-09-13T12:36:37.790Z,3.3
2022-09-13T12:37:46.137Z,3.3
2022-09-13T12:38:54.470Z,3.3
2022-09-13T12:40:03.056Z,3.1
2022-09-13T12:41:11.377Z,3.1
2022-09-13T12:42:19.712Z,3.1
2022-09-13T12:43:28.250Z,2.9
2022-09-13T12:44:36.574Z,2.9
2022-09-13T12:45:44.936Z,2.9
2022-09-13T12:46:53.413Z,2.5
2022-09-13T12:48:01.762Z,2.5
2022-09-13T12:49:10.091Z,2.5
2022-09-13T12:50:41.737Z,2.5
2022-09-13T12:51:27.021Z,2.5
2022-09-13T12:52:35.331Z,2.5
2022-09-13T12:53:44.699Z,2.8
2022-09-13T12:54:53.081Z,2.8
2022-09-13T12:56:01.411Z,2.8
2022-09-13T12:57:10.003Z,3
2022-09-13T12:58:18.336Z,3
2022-09-13T12:59:26.679Z,3
2022-09-13T13:00:35.231Z,2.6
2022-09-13T13:01:43.554Z,2.6
2022-09-13T13:02:54.540Z,2.6
2022-09-13T13:04:00.398Z,2.7
2022-09-13T13:05:08.738Z,2.7
2022-09-13T13:06:17.064Z,2.7
2022-09-13T13:07:25.616Z,3.3
2022-09-13T13:08:33.908Z,3.3
2022-09-13T13:09:42.247Z,3.3
2022-09-13T13:10:50.789Z,2.6
2022-09-13T13:11:59.160Z,2.6
2022-09-13T13:13:07.487Z,2.6
2022-09-13T13:14:16.026Z,2.3
2022-09-13T13:15:24.350Z,2.3
2022-09-13T13:16:32.739Z,2.3
2022-09-13T13:17:41.233Z,2.9
2022-09-13T13:18:49.578Z,2.9
2022-09-13T13:19:57.911Z,2.9
2022-09-13T13:21:06.432Z,2.7
2022-09-13T13:22:14.764Z,2.7
2022-09-13T13:23:23.123Z,2.7
2022-09-13T13:24:31.619Z,2.7
2022-09-13T13:25:39.945Z,2.7
2022-09-13T13:26:48.269Z,2.7
2022-09-13T13:27:56.799Z,2.4
2022-09-13T13:29:05.158Z,2.4
2022-09-13T13:30:13.479Z,2.4
2022-09-13T13:31:22.123Z,2.7
2022-09-13T13:32:30.376Z,2.7
2022-09-13T13:33:38.695Z,2.7
2022-09-13T13:34:47.257Z,3.2
2022-09-13T13:35:55.575Z,3.2
2022-09-13T13:37:03.905Z,3.2
2022-09-13T13:38:12.444Z,2.6
2022-09-13T13:39:20.867Z,2.6
2022-09-13T13:40:29.319Z,2.6
2022-09-13T13:41:37.675Z,2.9
2022-09-13T13:42:45.988Z,2.9
2022-09-13T13:43:54.308Z,2.9
2022-09-13T13:45:02.846Z,2.8
2022-09-13T13:46:11.307Z,2.8
2022-09-13T13:47:19.545Z,2.8
2022-09-13T13:48:28.097Z,2.7
2022-09-13T13:49:36.396Z,2.7
2022-09-13T13:50:44.728Z,2.7
2022-09-13T13:51:53.308Z,3
2022-09-13T13:53:01.623Z,3
2022-09-13T13:54:09.939Z,3
2022-09-13T13:55:18.492Z,2.9
2022-09-13T13:56:26.822Z,2.9
2022-09-13T13:57:35.144Z,2.9
2022-09-13T13:58:43.692Z,2.8
2022-09-13T13:59:52.070Z,2.8
2022-09-13T14:01:00.503Z,2.8
2022-09-13T14:02:08.980Z,3.1
2022-09-13T14:03:17.317Z,3.1
2022-09-13T14:04:25.674Z,3.1
2022-09-13T14:05:34.212Z,3.4
2022-09-13T14:06:42.533Z,3.4
2022-09-13T14:07:50.870Z,3.4
2022-09-13T14:10:07.745Z,3.3
2022-09-13T14:11:16.112Z,3.3
2022-09-13T14:12:24.655Z,3.1
2022-09-13T14:13:32.972Z,3.1
2022-09-13T14:14:41.288Z,3.1
2022-09-13T14:15:49.836Z,3.3
2022-09-13T14:16:58.235Z,3.3
2022-09-13T14:18:06.489Z,3.3
2022-09-13T14:19:15.011Z,3.3
2022-09-13T14:20:23.345Z,3.3
2022-09-13T14:21:31.675Z,3.3
2022-09-13T14:22:40.232Z,3.2
2022-09-13T14:23:48.551Z,3.2
2022-09-13T14:24:56.869Z,3.2
2022-09-13T14:26:05.394Z,3.3
2022-09-13T14:27:13.773Z,3.3
2022-09-13T14:28:22.073Z,3.3
2022-09-13T14:29:30.606Z,3.3
2022-09-13T15:04:33.920Z,0
2022-09-13T15:05:42.165Z,0
2022-09-13T15:06:50.520Z,0
2022-09-13T15:07:59.050Z,3.8
2022-09-13T15:09:07.373Z,3.8
2022-09-13T15:10:15.701Z,3.8
2022-09-13T15:11:24.236Z,4
2022-09-13T15:12:32.586Z,4
2022-09-13T15:13:40.931Z,4
2022-09-13T15:14:49.464Z,3.9
2022-09-13T15:15:57.825Z,3.9
2022-09-13T15:17:06.141Z,3.9
2022-09-13T15:18:14.702Z,4.1
2022-09-13T15:19:23.024Z,4.1
2022-09-13T15:20:31.488Z,4.1
2022-09-13T15:21:39.916Z,3.9
2022-09-13T15:22:48.253Z,3.9
2022-09-13T15:23:56.609Z,3.9
2022-09-13T15:25:05.137Z,3.7
2022-09-13T15:26:13.489Z,3.7
2022-09-13T15:27:21.800Z,3.7
2022-09-13T15:28:30.411Z,4
2022-09-13T15:29:38.726Z,4
2022-09-13T15:30:47.051Z,4
2022-09-13T15:31:55.658Z,4
2022-09-13T15:33:03.947Z,4
2022-09-13T15:34:12.323Z,4
2022-09-13T15:35:20.863Z,4.1
2022-09-13T15:36:29.232Z,4.1
2022-09-13T15:37:37.518Z,4.1
2022-09-13T15:38:46.251Z,4.2
2022-09-13T15:39:54.651Z,4.2
2022-09-13T15:41:02.937Z,4.2
2022-09-13T15:42:11.501Z,3.9
2022-09-13T15:43:19.823Z,3.9
2022-09-13T15:44:28.146Z,3.9
2022-09-13T15:45:36.689Z,5.6
2022-09-13T15:46:45.118Z,5.6
2022-09-13T15:47:53.369Z,5.6
2022-09-13T15:49:01.898Z,4.3
2022-09-13T15:50:10.229Z,4.3
2022-09-13T15:51:18.556Z,4.3
2022-09-13T15:52:27.359Z,4.6
2022-09-13T15:53:35.549Z,4.6
2022-09-13T15:54:43.873Z,4.6
2022-09-13T15:55:52.389Z,5.7
2022-09-13T15:57:00.753Z,5.7
2022-09-13T15:58:09.097Z,5.7
2022-09-13T15:59:17.636Z,5.2
2022-09-13T16:00:26.097Z,5.2
2022-09-13T16:01:34.322Z,5.2
2022-09-13T16:02:42.801Z,7.5
2022-09-13T16:03:51.145Z,7.5
2022-09-13T16:04:59.471Z,7.5
2022-09-13T16:06:07.988Z,6.3
2022-09-13T16:07:16.299Z,6.3
2022-09-13T16:08:24.639Z,6.3
2022-09-13T16:09:33.153Z,4.9
2022-09-13T16:10:41.489Z,4.9
2022-09-13T16:11:49.803Z,4.9
2022-09-13T16:12:58.357Z,4.8
2022-09-13T16:14:06.700Z,4.8
2022-09-13T16:15:15.044Z,4.8
2022-09-13T16:16:23.634Z,5
2022-09-13T16:17:31.954Z,5
2022-09-13T16:18:40.282Z,5
2022-09-13T16:19:48.818Z,5
2022-09-13T16:20:57.132Z,5
2022-09-13T16:22:07.786Z,5
2022-09-13T16:23:13.975Z,5.6
2022-09-13T16:24:22.321Z,5.6
2022-09-13T16:25:30.618Z,5.6